Time;durP1;ratioP1;P1;durP2;ratioP2;P2;SDS_P1;SDS_P2;PMS_P1;PMS_P2;Temp;Humidity;BMP_temperature;BMP_pressure;BME280_temperature;BME280_humidity;BME280_pressure;Samples;Min_cycle;Max_cycle;Signal;HPM_P1;HPM_P2
2022/04/24 00:00:38;;;;;;;82.45;54.90;;;19.10;57.70;;;;;;4942326;28;91391;-39
2022/04/24 00:03:04;;;;;;;82.30;54.63;;;19.10;57.60;;;;;;4936797;28;90100;-36
2022/04/24 00:05:29;;;;;;;82.93;54.90;;;19.10;57.70;;;;;;4940897;28;90771;-38
2022/04/24 00:07:55;;;;;;;83.30;55.08;;;19.10;57.70;;;;;;4945930;28;91926;-38
2022/04/24 00:10:21;;;;;;;82.65;55.53;;;19.10;57.70;;;;;;4943440;28;91507;-37
2022/04/24 00:12:48;;;;;;;81.82;54.88;;;19.00;57.60;;;;;;4936180;28;89769;-34
2022/04/24 00:15:14;;;;;;;83.00;55.38;;;19.00;57.60;;;;;;4943060;28;89226;-37
2022/04/24 00:17:40;;;;;;;83.60;55.58;;;19.00;57.60;;;;;;4945314;28;90007;-38
2022/04/24 00:20:06;;;;;;;82.93;55.33;;;19.00;57.70;;;;;;4953039;28;89754;-36
2022/04/24 00:22:31;;;;;;;83.05;55.78;;;19.00;57.70;;;;;;4941773;28;91183;-36
2022/04/24 00:24:57;;;;;;;83.40;55.67;;;19.00;57.60;;;;;;4938050;28;90313;-36
2022/04/24 00:27:23;;;;;;;83.25;55.75;;;19.00;57.70;;;;;;4931561;28;90696;-38
2022/04/24 00:29:48;;;;;;;82.28;55.20;;;19.00;57.60;;;;;;4939623;28;90579;-39
2022/04/24 00:32:14;;;;;;;82.63;55.35;;;19.00;57.60;;;;;;4937313;28;89963;-44
2022/04/24 00:34:41;;;;;;;83.10;55.05;;;18.90;57.50;;;;;;4935878;28;91989;-37
2022/04/24 00:37:07;;;;;;;81.50;55.05;;;18.90;57.60;;;;;;4938545;28;89904;-38
2022/04/24 00:39:33;;;;;;;81.93;54.58;;;18.90;57.60;;;;;;4939780;28;90689;-37
2022/04/24 00:41:59;;;;;;;82.88;54.88;;;18.90;57.50;;;;;;4939795;28;91677;-38
2022/04/24 00:44:26;;;;;;;82.22;54.88;;;18.90;57.50;;;;;;4941719;28;91321;-36
2022/04/24 00:46:57;;;;;;;83.22;55.72;;;18.90;57.50;;;;;;4939708;28;90870;-37
2022/04/24 00:49:23;;;;;;;82.60;55.77;;;18.90;57.50;;;;;;4945530;28;91708;-39
2022/04/24 00:51:49;;;;;;;81.57;54.80;;;18.90;57.40;;;;;;4946429;28;90977;-37
2022/04/24 00:54:15;;;;;;;82.78;55.72;;;18.90;57.50;;;;;;4936198;28;90211;-39
2022/04/24 00:56:42;;;;;;;83.03;55.42;;;18.80;57.40;;;;;;4936019;28;90863;-38
2022/04/24 00:59:10;;;;;;;83.10;55.08;;;18.90;57.50;;;;;;4937284;28;90210;-38
2022/04/24 01:01:37;;;;;;;85.63;56.00;;;18.80;57.40;;;;;;4938154;28;90180;-37
2022/04/24 01:04:05;;;;;;;82.57;55.33;;;18.80;57.50;;;;;;4939290;28;89352;-37
2022/04/24 01:06:36;;;;;;;83.07;56.10;;;18.80;57.40;;;;;;4944327;28;92004;-40
2022/04/24 01:09:12;;;;;;;;;;;18.80;57.30;;;;;;4944183;28;91884;-34
2022/04/24 01:11:39;;;;;;;81.30;55.08;;;18.80;57.30;;;;;;4943781;28;90866;-38
2022/04/24 01:14:05;;;;;;;81.22;54.72;;;18.80;57.40;;;;;;4944414;28;90193;-35
2022/04/24 01:16:32;;;;;;;81.13;54.45;;;18.80;57.40;;;;;;4945532;28;91422;-36
2022/04/24 01:18:58;;;;;;;82.70;55.90;;;18.80;57.40;;;;;;4945071;28;90206;-40
2022/04/24 01:21:24;;;;;;;83.22;55.15;;;18.80;57.40;;;;;;4940259;28;95299;-38
2022/04/24 01:23:50;;;;;;;82.63;55.88;;;18.80;57.40;;;;;;4945746;28;89642;-38
2022/04/24 01:26:15;;;;;;;82.43;55.28;;;18.80;57.40;;;;;;4942853;28;90499;-38
2022/04/24 01:28:41;;;;;;;82.18;55.58;;;18.80;57.30;;;;;;4941416;28;90343;-40
2022/04/24 01:31:07;;;;;;;82.20;55.08;;;18.70;57.30;;;;;;4947829;28;90097;-39
2022/04/24 01:33:33;;;;;;;82.10;55.33;;;18.70;57.30;;;;;;4940276;28;89833;-40
2022/04/24 01:35:58;;;;;;;82.32;55.05;;;18.70;57.40;;;;;;4939209;28;92124;-39
2022/04/24 01:38:24;;;;;;;82.85;55.35;;;18.70;57.30;;;;;;4940111;28;90724;-40
2022/04/24 01:40:50;;;;;;;81.28;54.83;;;18.70;57.30;;;;;;4943863;28;90817;-39
2022/04/24 01:43:16;;;;;;;83.95;55.53;;;18.70;57.40;;;;;;4943893;28;90194;-41
2022/04/24 01:45:43;;;;;;;81.70;55.53;;;18.70;57.30;;;;;;4939578;28;94789;-38
2022/04/24 01:48:09;;;;;;;81.50;54.95;;;18.70;57.30;;;;;;4946141;28;91437;-36
2022/04/24 01:50:34;;;;;;;82.35;55.70;;;18.70;57.30;;;;;;4945530;28;90411;-40
2022/04/24 01:53:00;;;;;;;81.75;55.30;;;18.70;57.40;;;;;;4947632;28;90155;-41
2022/04/24 01:55:27;;;;;;;81.30;54.80;;;18.70;57.40;;;;;;4951507;28;90298;-39
2022/04/24 01:57:52;;;;;;;81.78;55.22;;;18.70;57.40;;;;;;4936149;28;90975;-39
2022/04/24 02:00:18;;;;;;;81.47;55.40;;;18.70;57.40;;;;;;4937710;28;91389;-38
2022/04/24 02:02:45;;;;;;;81.25;54.83;;;18.70;57.30;;;;;;4935578;28;89824;-40
2022/04/24 02:05:10;;;;;;;82.47;55.25;;;18.60;57.30;;;;;;4940948;28;91074;-39
2022/04/24 02:07:36;;;;;;;82.28;55.00;;;18.60;57.30;;;;;;4946463;28;90305;-38
2022/04/24 02:10:02;;;;;;;81.38;54.75;;;18.60;57.30;;;;;;4941523;28;91340;-39
2022/04/24 02:12:27;;;;;;;81.35;55.10;;;18.60;57.20;;;;;;4937525;28;90237;-39
2022/04/24 02:14:53;;;;;;;82.53;55.33;;;18.60;57.30;;;;;;4937681;28;93275;-36
2022/04/24 02:17:18;;;;;;;81.78;55.58;;;18.60;57.30;;;;;;4949337;28;89364;-38
2022/04/24 02:19:44;;;;;;;81.35;55.38;;;18.60;57.40;;;;;;4938811;28;89839;-41
2022/04/24 02:22:10;;;;;;;80.90;54.28;;;18.60;57.30;;;;;;4938743;28;90303;-35
2022/04/24 02:24:35;;;;;;;82.05;54.85;;;18.60;57.30;;;;;;4934076;28;91379;-42
2022/04/24 02:27:01;;;;;;;81.95;55.50;;;18.60;57.30;;;;;;4948307;28;90904;-39
2022/04/24 02:29:27;;;;;;;82.13;55.47;;;18.60;57.30;;;;;;4942017;28;90325;-41
2022/04/24 02:31:53;;;;;;;81.20;54.97;;;18.60;57.30;;;;;;4946871;28;90430;-42
2022/04/24 02:34:18;;;;;;;81.18;54.72;;;18.60;57.30;;;;;;4946176;28;89797;-38
2022/04/24 02:36:44;;;;;;;81.40;54.88;;;18.60;57.30;;;;;;4943019;28;90249;-40
2022/04/24 02:39:10;;;;;;;81.18;55.47;;;18.60;57.30;;;;;;4938329;28;91100;-38
2022/04/24 02:41:35;;;;;;;81.78;54.95;;;18.60;57.30;;;;;;4942231;28;90824;-34
2022/04/24 02:44:01;;;;;;;81.47;54.78;;;18.50;57.20;;;;;;4935113;28;90407;-40
2022/04/24 02:46:26;;;;;;;81.47;55.25;;;18.50;57.20;;;;;;4934346;28;90712;-38
2022/04/24 02:48:52;;;;;;;81.60;54.92;;;18.50;57.20;;;;;;4938221;28;91375;-35
2022/04/24 02:51:18;;;;;;;80.80;54.83;;;18.50;57.20;;;;;;4946545;28;91866;-36
2022/04/24 02:53:44;;;;;;;82.22;55.13;;;18.50;57.20;;;;;;4941889;28;91043;-38
2022/04/24 02:56:09;;;;;;;81.05;55.00;;;18.50;57.20;;;;;;4941053;28;96287;-38
2022/04/24 02:58:38;;;;;;;79.75;54.30;;;18.50;57.20;;;;;;4943125;28;96836;-38
2022/04/24 03:01:04;;;;;;;80.68;55.00;;;18.50;57.20;;;;;;4942630;28;91276;-39
2022/04/24 03:03:29;;;;;;;79.88;54.45;;;18.50;57.20;;;;;;4946257;28;90499;-37
2022/04/24 03:05:55;;;;;;;81.28;54.88;;;18.50;57.10;;;;;;4944305;28;89876;-34
2022/04/24 03:08:21;;;;;;;80.40;54.42;;;18.50;57.20;;;;;;4944365;28;95050;-37
2022/04/24 03:10:47;;;;;;;79.78;54.25;;;18.50;57.20;;;;;;4940145;28;90985;-39
2022/04/24 03:13:12;;;;;;;80.88;54.90;;;18.50;57.20;;;;;;4947058;28;90836;-40
2022/04/24 03:15:39;;;;;;;80.07;54.33;;;18.50;57.20;;;;;;4938114;28;91704;-40
2022/04/24 03:18:06;;;;;;;80.38;54.28;;;18.50;57.30;;;;;;4935590;28;90059;-39
2022/04/24 03:20:31;;;;;;;80.47;54.70;;;18.50;57.20;;;;;;4940846;28;91228;-37
2022/04/24 03:22:57;;;;;;;79.22;53.88;;;18.50;57.20;;;;;;4944677;28;90542;-36
2022/04/24 03:25:23;;;;;;;80.57;54.10;;;18.50;57.20;;;;;;4936508;28;90299;-37
2022/04/24 03:27:49;;;;;;;80.78;55.28;;;18.40;57.10;;;;;;4942082;28;89988;-37
2022/04/24 03:30:15;;;;;;;81.43;54.00;;;18.40;57.20;;;;;;4941530;28;93684;-35
2022/04/24 03:32:40;;;;;;;80.80;54.95;;;18.40;57.10;;;;;;4958340;28;89773;-36
2022/04/24 03:35:09;;;;;;;80.43;54.20;;;18.40;57.20;;;;;;4944010;28;90564;-39
2022/04/24 03:37:36;;;;;;;80.60;54.72;;;18.40;57.10;;;;;;4952913;28;90927;-34
2022/04/24 03:40:02;;;;;;;80.18;54.63;;;18.50;57.20;;;;;;4942317;28;90280;-37
2022/04/24 03:42:28;;;;;;;80.72;54.60;;;18.40;57.10;;;;;;4936466;28;90196;-39
2022/04/24 03:44:55;;;;;;;80.65;54.28;;;18.40;57.10;;;;;;4948595;28;91748;-36
2022/04/24 03:47:21;;;;;;;80.03;54.45;;;18.40;57.00;;;;;;4943056;28;90494;-39
2022/04/24 03:49:47;;;;;;;80.10;54.03;;;18.40;57.10;;;;;;4941080;28;89932;-38
2022/04/24 03:52:13;;;;;;;81.07;54.72;;;18.40;57.10;;;;;;4941789;28;94242;-40
2022/04/24 03:54:39;;;;;;;79.93;54.53;;;18.30;57.00;;;;;;4938931;28;94451;-37
2022/04/24 03:57:06;;;;;;;80.85;54.38;;;18.30;57.00;;;;;;4942575;28;89832;-41
2022/04/24 03:59:31;;;;;;;80.25;54.30;;;18.30;57.00;;;;;;4941951;28;90510;-36
2022/04/24 04:01:57;;;;;;;79.18;53.78;;;18.30;57.10;;;;;;4939248;28;92305;-36
2022/04/24 04:04:23;;;;;;;80.47;54.47;;;18.30;57.10;;;;;;4944038;28;90301;-36
2022/04/24 04:06:49;;;;;;;79.15;53.92;;;18.30;57.00;;;;;;4940267;28;90696;-37
2022/04/24 04:09:15;;;;;;;79.32;53.92;;;18.30;57.00;;;;;;4938850;28;90187;-38
2022/04/24 04:11:40;;;;;;;79.72;53.60;;;18.30;57.00;;;;;;4944874;28;90199;-38
2022/04/24 04:14:06;;;;;;;79.30;53.97;;;18.30;57.00;;;;;;4942547;28;92332;-37
2022/04/24 04:16:32;;;;;;;80.13;54.25;;;18.30;57.00;;;;;;4949857;28;89893;-36
2022/04/24 04:18:58;;;;;;;79.20;54.08;;;18.30;57.00;;;;;;4950679;28;89322;-38
2022/04/24 04:21:23;;;;;;;79.68;54.00;;;18.30;57.00;;;;;;4942794;28;96210;-39
2022/04/24 04:23:49;;;;;;;80.07;53.60;;;18.30;57.00;;;;;;4949506;28;89855;-36
2022/04/24 04:26:17;;;;;;;80.28;54.15;;;18.30;56.90;;;;;;4938583;28;93768;-41
2022/04/24 04:28:46;;;;;;;79.60;54.00;;;18.30;57.00;;;;;;4938460;28;96106;-39
2022/04/24 04:31:13;;;;;;;80.22;53.65;;;18.30;57.00;;;;;;4938174;28;90142;-36
2022/04/24 04:33:39;;;;;;;79.85;53.65;;;18.30;57.00;;;;;;4943178;28;89825;-38
2022/04/24 04:36:06;;;;;;;79.63;53.65;;;18.20;56.90;;;;;;4937002;28;91229;-37
2022/04/24 04:38:31;;;;;;;79.95;54.45;;;18.30;57.10;;;;;;4938580;28;90224;-35
2022/04/24 04:40:57;;;;;;;79.15;53.72;;;18.20;56.90;;;;;;4941691;28;89957;-36
2022/04/24 04:43:26;;;;;;;79.50;54.05;;;18.20;56.90;;;;;;4941480;28;91743;-37
2022/04/24 04:45:52;;;;;;;78.43;53.13;;;18.20;56.90;;;;;;4941841;28;90787;-36
2022/04/24 04:48:18;;;;;;;81.38;53.80;;;18.20;56.90;;;;;;4946102;28;93194;-37
2022/04/24 04:50:43;;;;;;;78.68;53.20;;;18.20;56.90;;;;;;4943139;28;93003;-39
2022/04/24 04:53:09;;;;;;;79.47;53.83;;;18.20;56.90;;;;;;4943443;28;90491;-38
2022/04/24 04:55:35;;;;;;;79.65;53.70;;;18.20;56.90;;;;;;4945295;28;89967;-41
2022/04/24 04:58:01;;;;;;;78.40;53.53;;;18.20;56.90;;;;;;4935409;28;90553;-36
2022/04/24 05:00:26;;;;;;;79.90;53.55;;;18.20;56.90;;;;;;4936756;28;91012;-37
2022/04/24 05:02:53;;;;;;;78.63;53.47;;;18.20;56.80;;;;;;4947050;28;90702;-36
2022/04/24 05:05:19;;;;;;;79.00;53.58;;;18.20;56.90;;;;;;4941194;28;89700;-39
2022/04/24 05:07:45;;;;;;;79.18;53.20;;;18.20;56.90;;;;;;4938826;28;91172;-38
2022/04/24 05:10:10;;;;;;;78.65;53.60;;;18.20;56.80;;;;;;4944655;28;90446;-39
2022/04/24 05:12:36;;;;;;;79.40;53.38;;;18.10;56.70;;;;;;4945691;28;91347;-36
2022/04/24 05:15:09;;;;;;;78.90;53.80;;;18.20;56.80;;;;;;4944720;28;90977;-38
2022/04/24 05:17:36;;;;;;;78.85;53.22;;;18.20;56.70;;;;;;4945699;28;90471;-35
2022/04/24 05:20:04;;;;;;;79.05;53.28;;;18.20;56.80;;;;;;4943976;28;91152;-37
2022/04/24 05:22:29;;;;;;;78.07;53.10;;;18.10;56.70;;;;;;4941159;28;92036;-38
2022/04/24 05:24:55;;;;;;;78.82;53.22;;;18.20;56.80;;;;;;4942244;28;89743;-38
2022/04/24 05:27:21;;;;;;;78.30;53.15;;;18.20;56.80;;;;;;4941619;28;89628;-38
2022/04/24 05:29:47;;;;;;;78.75;52.92;;;18.20;56.70;;;;;;4937404;28;90304;-37
2022/04/24 05:32:14;;;;;;;78.25;53.08;;;18.20;56.60;;;;;;4945923;28;91692;-38
2022/04/24 05:34:42;;;;;;;78.78;52.88;;;18.20;56.60;;;;;;4942241;28;90317;-40
2022/04/24 05:37:09;;;;;;;78.95;53.28;;;18.20;56.60;;;;;;4940868;28;90188;-40
2022/04/24 05:39:35;;;;;;;78.85;53.30;;;18.20;56.60;;;;;;4940022;28;93266;-38
2022/04/24 05:42:01;;;;;;;78.18;53.08;;;18.20;56.70;;;;;;4937847;28;90332;-38
2022/04/24 05:44:27;;;;;;;78.25;53.17;;;18.20;56.60;;;;;;4938084;28;90015;-40
2022/04/24 05:46:52;;;;;;;79.03;53.10;;;18.20;56.60;;;;;;4931900;28;90225;-36
2022/04/24 05:49:18;;;;;;;78.05;52.88;;;18.20;56.60;;;;;;4941673;28;90254;-41
2022/04/24 05:51:44;;;;;;;78.45;53.00;;;18.20;56.60;;;;;;4935689;28;90825;-38
2022/04/24 05:54:10;;;;;;;78.25;52.90;;;18.20;56.50;;;;;;4939152;28;91285;-40
2022/04/24 05:56:38;;;;;;;77.65;52.88;;;18.20;56.50;;;;;;4940401;28;89046;-40
2022/04/24 05:59:04;;;;;;;77.85;52.67;;;18.20;56.50;;;;;;4940211;28;90450;-40
2022/04/24 06:01:30;;;;;;;78.82;53.25;;;18.20;56.60;;;;;;4939696;28;92840;-41
2022/04/24 06:03:55;;;;;;;77.32;52.55;;;18.20;56.50;;;;;;4932857;28;91404;-41
2022/04/24 06:06:21;;;;;;;77.40;52.47;;;18.20;57.00;;;;;;4936506;28;90941;-39
2022/04/24 06:08:47;;;;;;;77.95;52.92;;;18.20;56.40;;;;;;4938974;28;90017;-38
2022/04/24 06:11:12;;;;;;;77.75;52.83;;;18.10;56.40;;;;;;4940201;28;90164;-38
2022/04/24 06:13:42;;;;;;;78.28;52.80;;;18.20;56.30;;;;;;4927141;28;90617;-40
2022/04/24 06:16:08;;;;;;;77.95;52.60;;;18.20;56.60;;;;;;4935377;28;90313;-37
2022/04/24 06:18:33;;;;;;;79.25;53.03;;;18.10;56.60;;;;;;4932806;28;90484;-39
2022/04/24 06:20:59;;;;;;;79.18;53.00;;;18.20;56.70;;;;;;4934795;28;90415;-39
2022/04/24 06:23:27;;;;;;;78.68;52.92;;;18.20;56.80;;;;;;4936303;28;90098;-40
2022/04/24 06:25:53;;;;;;;82.63;53.10;;;18.20;56.90;;;;;;4935360;28;90284;-36
2022/04/24 06:28:18;;;;;;;79.03;52.95;;;18.20;57.00;;;;;;4930865;28;93090;-41
2022/04/24 06:30:44;;;;;;;79.53;52.83;;;18.20;57.00;;;;;;4936922;28;91148;-38
2022/04/24 06:33:11;;;;;;;77.53;52.45;;;18.20;57.00;;;;;;4931311;28;90205;-36
2022/04/24 06:35:37;;;;;;;79.50;53.42;;;18.30;57.10;;;;;;4940564;28;91002;-38
2022/04/24 06:38:04;;;;;;;82.63;53.33;;;18.30;57.10;;;;;;4935516;28;91104;-39
2022/04/24 06:40:30;;;;;;;80.85;53.20;;;18.30;57.00;;;;;;4937990;28;92189;-40
2022/04/24 06:43:05;;;;;;;80.50;53.25;;;18.30;57.00;;;;;;4936359;28;90058;-38
2022/04/24 06:45:33;;;;;;;81.95;53.55;;;18.30;56.90;;;;;;4936949;28;89578;-38
2022/04/24 06:48:01;;;;;;;81.82;53.45;;;18.30;57.00;;;;;;4937018;28;89969;-38
2022/04/24 06:50:28;;;;;;;84.00;53.40;;;18.30;57.00;;;;;;4941762;28;90029;-39
2022/04/24 06:53:05;;;;;;;82.82;53.70;;;18.30;56.80;;;;;;4935271;28;92977;-41
2022/04/24 06:55:32;;;;;;;80.82;53.70;;;18.30;56.80;;;;;;4931426;28;91637;-38
2022/04/24 06:57:59;;;;;;;82.00;53.75;;;18.30;56.80;;;;;;4931655;28;90292;-42
2022/04/24 07:00:27;;;;;;;81.70;53.33;;;18.30;56.50;;;;;;4930897;28;90900;-37
2022/04/24 07:02:53;;;;;;;81.90;54.10;;;18.40;56.80;;;;;;4933963;28;91393;-35
2022/04/24 07:05:24;;;;;;;83.75;53.40;;;18.40;56.50;;;;;;4945749;28;91221;-39
2022/04/24 07:07:50;;;;;;;81.18;53.85;;;18.40;56.60;;;;;;4949041;28;90024;-36
2022/04/24 07:10:16;;;;;;;81.05;53.53;;;18.40;56.50;;;;;;4952583;28;89088;-37
2022/04/24 07:12:49;;;;;;;80.60;53.55;;;18.40;56.30;;;;;;4947068;28;90331;-39
2022/04/24 07:15:15;;;;;;;82.35;53.55;;;18.40;56.30;;;;;;4950373;28;89847;-39
2022/04/24 07:17:42;;;;;;;81.63;54.00;;;18.50;56.40;;;;;;4948994;28;91730;-38
2022/04/24 07:20:09;;;;;;;81.70;53.83;;;18.50;56.20;;;;;;4949701;28;93448;-39
2022/04/24 07:22:46;;;;;;;83.45;53.85;;;18.50;56.10;;;;;;4948397;28;89504;-41
2022/04/24 07:25:17;;;;;;;81.13;53.70;;;18.50;56.30;;;;;;4958234;28;89802;-37
2022/04/24 07:27:43;;;;;;;84.78;53.95;;;18.50;56.20;;;;;;4962886;28;95535;-39
2022/04/24 07:30:15;;;;;;;83.05;54.22;;;18.50;56.10;;;;;;4945558;28;90860;-41
2022/04/24 07:32:43;;;;;;;83.50;53.75;;;18.50;56.10;;;;;;4952543;28;93020;-38
2022/04/24 07:35:11;;;;;;;82.45;53.85;;;18.50;56.00;;;;;;4949652;28;89346;-36
2022/04/24 07:37:37;;;;;;;80.50;53.42;;;18.50;56.10;;;;;;4944043;28;92270;-38
2022/04/24 07:40:08;;;;;;;81.35;53.42;;;18.50;56.20;;;;;;4953465;28;89922;-40
2022/04/24 07:42:58;;;;;;;82.75;53.67;;;18.50;56.10;;;;;;4953782;28;90972;-35
2022/04/24 07:45:29;;;;;;;80.93;53.72;;;18.50;56.00;;;;;;4955929;28;89825;-37
2022/04/24 07:47:56;;;;;;;83.63;53.78;;;18.50;56.10;;;;;;4951461;28;90751;-40
2022/04/24 07:50:24;;;;;;;81.00;53.67;;;18.50;56.10;;;;;;4950214;28;90609;-41
2022/04/24 07:52:50;;;;;;;80.88;53.20;;;18.60;56.00;;;;;;4943889;28;92351;-40
2022/04/24 07:55:18;;;;;;;80.90;53.70;;;18.60;56.00;;;;;;4953514;28;89819;-39
2022/04/24 07:57:45;;;;;;;80.72;53.28;;;18.60;56.00;;;;;;4961256;28;89861;-39
2022/04/24 08:00:11;;;;;;;83.22;53.92;;;18.60;56.00;;;;;;4948875;28;93696;-38
2022/04/24 08:03:02;;;;;;;81.63;53.58;;;18.60;56.00;;;;;;4954062;28;89461;-35
2022/04/24 08:05:32;;;;;;;81.38;53.53;;;18.60;56.00;;;;;;4947069;28;90271;-38
2022/04/24 08:08:01;;;;;;;81.35;53.33;;;18.60;55.90;;;;;;4946419;28;93027;-39
2022/04/24 08:10:30;;;;;;;81.25;53.63;;;18.60;56.00;;;;;;4955079;28;89813;-37
2022/04/24 08:12:56;;;;;;;80.50;53.75;;;18.60;55.90;;;;;;4949463;28;91690;-40
2022/04/24 08:15:22;;;;;;;81.35;53.38;;;18.60;55.80;;;;;;4952148;28;89732;-37
2022/04/24 08:17:48;;;;;;;81.68;53.50;;;18.60;55.90;;;;;;4949143;28;90405;-38
2022/04/24 08:20:15;;;;;;;80.32;53.45;;;18.60;55.90;;;;;;4954170;28;90481;-36
2022/04/24 08:22:49;;;;;;;81.75;54.08;;;18.60;55.90;;;;;;4946925;28;90446;-41
2022/04/24 08:25:20;;;;;;;80.63;53.08;;;18.60;55.80;;;;;;4950440;28;89076;-39
2022/04/24 08:27:47;;;;;;;82.00;53.63;;;18.60;55.90;;;;;;4949276;28;93500;-39
2022/04/24 08:30:15;;;;;;;82.05;53.78;;;18.60;55.80;;;;;;4945342;28;90520;-42
2022/04/24 08:32:41;;;;;;;81.57;54.10;;;18.60;55.90;;;;;;4954728;28;91171;-37
2022/04/24 08:35:09;;;;;;;80.70;53.78;;;18.60;55.70;;;;;;4945374;28;89882;-39
2022/04/24 08:37:35;;;;;;;81.53;53.38;;;18.60;55.70;;;;;;4951199;28;90247;-39
2022/04/24 08:40:03;;;;;;;82.88;53.67;;;18.70;55.80;;;;;;4944536;28;89947;-36
2022/04/24 08:42:30;;;;;;;83.00;53.50;;;18.70;55.80;;;;;;4951803;28;89962;-40
2022/04/24 08:44:56;;;;;;;81.53;53.63;;;18.70;55.90;;;;;;4946596;28;91162;-37
2022/04/24 08:47:22;;;;;;;81.20;53.28;;;18.60;55.80;;;;;;4951551;28;91278;-37
2022/04/24 08:49:48;;;;;;;82.80;53.55;;;18.70;55.50;;;;;;4954494;28;90047;-40
2022/04/24 08:52:14;;;;;;;81.47;53.85;;;18.70;55.80;;;;;;4953560;28;89973;-34
2022/04/24 08:54:41;;;;;;;81.22;53.55;;;18.70;55.70;;;;;;4952192;28;90330;-37
2022/04/24 08:57:08;;;;;;;81.20;53.28;;;18.70;55.80;;;;;;4954623;28;91758;-38
2022/04/24 08:59:36;;;;;;;81.63;53.67;;;18.70;56.40;;;;;;4941489;28;94123;-39
2022/04/24 09:02:01;;;;;;;81.03;53.75;;;18.70;55.80;;;;;;4951173;28;94537;-35
2022/04/24 09:04:30;;;;;;;82.70;53.95;;;18.70;55.80;;;;;;4945548;28;90770;-35
2022/04/24 09:07:01;;;;;;;81.68;54.20;;;18.70;55.80;;;;;;4947644;28;90158;-37
2022/04/24 09:09:27;;;;;;;81.38;53.53;;;18.70;55.50;;;;;;4953612;28;90572;-41
2022/04/24 09:12:05;;;;;;;81.15;53.95;;;18.70;55.60;;;;;;4952761;28;90225;-36
2022/04/24 09:14:32;;;;;;;81.22;54.03;;;18.70;55.60;;;;;;4947957;28;90726;-40
2022/04/24 09:17:00;;;;;;;81.05;53.38;;;18.70;55.50;;;;;;4956312;28;90057;-36
2022/04/24 09:19:26;;;;;;;81.80;54.13;;;18.70;55.60;;;;;;4955699;28;92371;-38
2022/04/24 09:22:00;;;;;;;81.88;53.55;;;18.70;55.60;;;;;;4956116;28;90675;-36
2022/04/24 09:24:39;;;;;;;80.97;53.67;;;18.70;55.70;;;;;;4952489;28;90465;-39
2022/04/24 09:27:05;;;;;;;82.47;54.47;;;18.70;55.60;;;;;;4953012;28;89886;-38
2022/04/24 09:29:30;;;;;;;81.00;53.45;;;18.70;55.40;;;;;;4952701;28;90149;-40
2022/04/24 09:31:56;;;;;;;82.13;54.08;;;18.80;55.60;;;;;;4949766;28;91020;-40
2022/04/24 09:34:30;;;;;;;82.15;53.83;;;18.80;55.50;;;;;;4952995;28;89655;-41
2022/04/24 09:37:00;;;;;;;81.63;53.80;;;18.80;55.40;;;;;;4957448;28;90032;-37
2022/04/24 09:39:30;;;;;;;82.00;54.33;;;18.80;55.50;;;;;;4956723;28;89186;-38
2022/04/24 09:42:06;;;;;;;83.10;54.42;;;18.80;55.40;;;;;;4949601;28;89956;-37
2022/04/24 09:44:39;;;;;;;81.57;54.05;;;18.80;55.30;;;;;;4948824;28;93365;-37
2022/04/24 09:47:05;;;;;;;82.88;54.10;;;18.80;55.30;;;;;;4960439;28;91166;-35
2022/04/24 09:49:41;;;;;;;81.85;53.90;;;18.80;55.30;;;;;;4948443;28;91319;-38
2022/04/24 09:52:11;;;;;;;82.95;54.03;;;18.80;55.30;;;;;;4948380;28;90903;-38
2022/04/24 09:54:39;;;;;;;80.93;54.00;;;18.80;55.40;;;;;;4950257;28;89670;-37
2022/04/24 09:57:08;;;;;;;83.10;54.70;;;18.80;55.30;;;;;;4947579;28;89909;-39
2022/04/24 09:59:39;;;;;;;83.28;54.38;;;18.80;55.40;;;;;;4941574;28;90157;-34
2022/04/24 10:02:08;;;;;;;82.15;54.45;;;18.80;55.20;;;;;;4946827;28;96947;-34
2022/04/24 10:04:36;;;;;;;82.00;54.10;;;18.80;55.10;;;;;;4953205;28;90038;-40
2022/04/24 10:07:13;;;;;;;82.32;53.78;;;18.80;55.20;;;;;;4954116;28;90250;-37
2022/04/24 10:09:41;;;;;;;84.15;55.08;;;18.80;55.20;;;;;;4950856;28;90009;-38
2022/04/24 10:12:08;;;;;;;82.25;53.88;;;18.90;54.60;;;;;;4954500;28;90723;-37
2022/04/24 10:15:06;;;;;;;82.63;54.33;;;18.90;55.10;;;;;;4959415;28;89631;-33
2022/04/24 10:17:48;;;;;;;81.80;53.70;;;18.90;54.80;;;;;;4951055;28;92927;-37
2022/04/24 10:20:34;;;;;;;81.30;54.35;;;18.90;55.10;;;;;;4947985;28;90074;-40
2022/04/24 10:23:00;;;;;;;82.47;54.22;;;18.90;55.10;;;;;;4949575;28;92439;-39
2022/04/24 10:25:52;;;;;;;81.63;53.72;;;18.90;55.00;;;;;;4953634;28;90049;-38
2022/04/24 10:28:19;;;;;;;80.72;53.70;;;18.90;55.10;;;;;;4950596;28;90719;-39
2022/04/24 10:30:58;;;;;;;81.82;54.03;;;19.00;55.10;;;;;;4944258;28;89385;-36
2022/04/24 10:33:26;;;;;;;81.65;54.00;;;18.90;55.00;;;;;;4952496;28;89897;-38
2022/04/24 10:35:59;;;;;;;81.57;54.30;;;18.90;55.20;;;;;;4949467;28;89831;-35
2022/04/24 10:38:26;;;;;;;81.78;53.70;;;18.90;55.10;;;;;;4956620;28;92590;-34
2022/04/24 10:41:18;;;;;;;82.80;54.33;;;19.00;55.10;;;;;;4947134;28;89909;-40
2022/04/24 10:43:46;;;;;;;81.90;54.35;;;19.00;54.60;;;;;;4957710;28;90009;-36
2022/04/24 10:46:18;;;;;;;82.00;54.13;;;19.00;54.80;;;;;;4960634;28;90320;-36
2022/04/24 10:48:46;;;;;;;81.47;53.60;;;19.00;54.90;;;;;;4961441;28;91208;-37
2022/04/24 10:51:12;;;;;;;81.80;54.25;;;19.00;55.00;;;;;;4949127;28;90106;-40
2022/04/24 10:53:52;;;;;;;82.78;53.70;;;19.00;55.00;;;;;;4949427;28;90112;-38
2022/04/24 10:56:18;;;;;;;83.55;54.30;;;19.00;55.10;;;;;;4952363;28;89485;-40
2022/04/24 10:58:44;;;;;;;83.97;53.83;;;19.10;55.10;;;;;;4951825;28;90119;-38
2022/04/24 11:01:14;;;;;;;82.82;53.88;;;19.00;55.00;;;;;;4953979;28;90005;-43
2022/04/24 11:03:41;;;;;;;82.03;54.22;;;19.00;55.00;;;;;;4950780;28;90891;-37
2022/04/24 11:06:20;;;;;;;81.95;53.65;;;19.10;55.10;;;;;;4946458;28;91581;-38
2022/04/24 11:08:47;;;;;;;84.00;53.92;;;19.10;55.10;;;;;;4956263;28;90124;-38
2022/04/24 11:11:13;;;;;;;82.05;54.05;;;19.10;55.20;;;;;;4948872;28;90443;-40
2022/04/24 11:13:39;;;;;;;82.18;54.05;;;19.10;55.30;;;;;;4955694;28;89802;-36
2022/04/24 11:16:06;;;;;;;81.85;53.88;;;19.10;55.20;;;;;;4956127;28;92749;-39
2022/04/24 11:18:33;;;;;;;83.50;54.10;;;19.10;55.10;;;;;;4957230;28;89578;-39
2022/04/24 11:21:03;;;;;;;82.47;54.03;;;19.10;55.10;;;;;;4950439;28;89218;-41
2022/04/24 11:23:30;;;;;;;81.65;53.88;;;19.10;55.20;;;;;;4954910;28;89881;-40
2022/04/24 11:25:57;;;;;;;82.57;53.95;;;19.10;55.20;;;;;;4956250;28;90354;-37
2022/04/24 11:28:36;;;;;;;82.60;54.20;;;19.10;55.10;;;;;;4953160;28;91661;-39
2022/04/24 11:31:13;;;;;;;82.20;54.30;;;19.10;55.00;;;;;;4949026;28;90535;-39
2022/04/24 11:33:50;;;;;;;83.15;53.95;;;19.20;55.10;;;;;;4958283;28;89947;-38
2022/04/24 11:36:16;;;;;;;82.22;53.95;;;19.20;55.10;;;;;;4952957;28;90068;-41
2022/04/24 11:38:46;;;;;;;81.97;53.85;;;19.20;55.00;;;;;;4955369;28;90303;-36
2022/04/24 11:41:15;;;;;;;81.90;53.95;;;19.20;55.10;;;;;;4958427;28;89867;-41
2022/04/24 11:43:41;;;;;;;82.38;53.92;;;19.20;55.10;;;;;;4954348;28;90009;-40
2022/04/24 11:51:40;;;;;;;82.25;53.85;;;19.20;54.80;;;;;;4954360;28;93993;-38
2022/04/24 11:54:08;;;;;;;82.10;53.83;;;19.30;54.80;;;;;;4954541;28;93653;-41
2022/04/24 11:56:36;;;;;;;81.80;53.67;;;19.30;54.70;;;;;;4955776;28;90011;-38
2022/04/24 11:59:15;;;;;;;82.43;53.92;;;19.30;54.70;;;;;;4954811;28;90019;-37
2022/04/24 12:01:43;;;;;;;82.65;53.90;;;19.30;54.70;;;;;;4943794;28;91129;-39
2022/04/24 12:04:16;;;;;;;81.75;53.53;;;19.30;54.80;;;;;;4949167;28;90014;-40
2022/04/24 12:06:41;;;;;;;82.55;53.90;;;19.30;54.70;;;;;;4954339;28;89589;-36
2022/04/24 12:09:08;;;;;;;82.32;53.67;;;19.30;54.70;;;;;;4952203;28;89923;-39
2022/04/24 12:11:35;;;;;;;83.32;54.03;;;19.40;54.70;;;;;;4956222;28;95261;-40
2022/04/24 12:14:08;;;;;;;81.72;53.45;;;19.40;54.70;;;;;;4952033;28;90171;-35
2022/04/24 12:16:35;;;;;;;83.82;54.20;;;19.40;54.60;;;;;;4956132;28;91352;-38
2022/04/24 12:19:01;;;;;;;82.32;53.80;;;19.40;54.70;;;;;;4948476;28;91812;-34
2022/04/24 12:21:28;;;;;;;82.40;53.83;;;19.40;54.60;;;;;;4952230;28;90354;-38
2022/04/24 12:23:55;;;;;;;83.90;54.13;;;19.40;54.60;;;;;;4954434;28;89782;-41
2022/04/24 12:26:21;;;;;;;83.03;53.58;;;19.40;54.60;;;;;;4956039;28;91399;-37
2022/04/24 12:28:48;;;;;;;82.45;53.83;;;19.40;54.50;;;;;;4957081;28;90294;-38
2022/04/24 12:31:25;;;;;;;82.93;53.92;;;19.50;54.60;;;;;;4949723;28;89782;-39
2022/04/24 12:33:55;;;;;;;83.85;54.03;;;19.50;54.60;;;;;;4944871;28;90131;-39
2022/04/24 12:36:22;;;;;;;82.90;53.92;;;19.50;54.60;;;;;;4956106;28;89141;-38